Terminal Aerodrome Forecast
Issued by NWS

Home | Current Version | Previous Version | Text Only | Print | Product List | Glossary On
Versions: 1 2 3 4 5 6 7 8 9 10 11 12 13 14
381
FTUS41 KPBZ 202337 CCA
TAFBVI
TAF COR
KBVI 202337Z 2100/2124 00000KT P6SM SCT100
     FM210800 00000KT 1SM BR SCT003
     FM211100 00000KT 3/4SM BR SCT003
     FM211300 VRB03KT P6SM SCT040
      AMD NOT SKED 2102/2112=

USA.gov is the U.S. government's official web portal to all federal, state and local government web resources and services.